sensor_id;sensor_type;location;lat;lon;timestamp;pressure;altitude;pressure_sealevel;temperature;humidity
19884;BME280;10104;50.732;10.174;2023-01-15T00:02:00;96264.91;;;9.82;100.00
19884;BME280;10104;50.732;10.174;2023-01-15T00:04:21;96251.03;;;9.87;100.00
19884;BME280;10104;50.732;10.174;2023-01-15T00:06:43;96253.09;;;9.85;100.00
19884;BME280;10104;50.732;10.174;2023-01-15T00:09:05;96240.22;;;9.88;100.00
19884;BME280;10104;50.732;10.174;2023-01-15T00:11:27;96248.31;;;9.93;100.00
19884;BME280;10104;50.732;10.174;2023-01-15T00:13:48;96238.16;;;9.90;100.00
19884;BME280;10104;50.732;10.174;2023-01-15T00:16:19;96228.00;;;10.05;100.00
19884;BME280;10104;50.732;10.174;2023-01-15T00:18:41;96219.59;;;10.08;100.00
19884;BME280;10104;50.732;10.174;2023-01-15T00:21:05;96225.91;;;10.07;100.00
19884;BME280;10104;50.732;10.174;2023-01-15T00:23:27;96215.13;;;10.09;100.00
19884;BME280;10104;50.732;10.174;2023-01-15T00:26:11;96218.78;;;10.08;100.00
19884;BME280;10104;50.732;10.174;2023-01-15T00:28:52;96209.75;;;10.15;100.00
19884;BME280;10104;50.732;10.174;2023-01-15T00:31:13;96208.75;;;10.17;100.00
19884;BME280;10104;50.732;10.174;2023-01-15T00:33:35;96212.13;;;10.05;100.00
19884;BME280;10104;50.732;10.174;2023-01-15T00:35:56;96208.00;;;10.09;100.00
19884;BME280;10104;50.732;10.174;2023-01-15T00:38:18;96211.06;;;10.06;100.00
19884;BME280;10104;50.732;10.174;2023-01-15T00:40:39;96205.34;;;10.09;100.00
19884;BME280;10104;50.732;10.174;2023-01-15T00:43:00;96200.59;;;10.18;100.00
19884;BME280;10104;50.732;10.174;2023-01-15T00:45:22;96206.91;;;10.17;100.00
19884;BME280;10104;50.732;10.174;2023-01-15T00:47:44;96222.31;;;10.20;100.00
19884;BME280;10104;50.732;10.174;2023-01-15T00:50:10;96212.53;;;10.21;100.00
19884;BME280;10104;50.732;10.174;2023-01-15T00:52:32;96201.81;;;10.15;100.00
19884;BME280;10104;50.732;10.174;2023-01-15T00:54:54;96190.13;;;10.35;100.00
19884;BME280;10104;50.732;10.174;2023-01-15T00:57:15;96187.94;;;10.32;100.00
19884;BME280;10104;50.732;10.174;2023-01-15T00:59:36;96199.44;;;10.26;100.00
19884;BME280;10104;50.732;10.174;2023-01-15T01:01:58;96184.72;;;10.30;100.00
19884;BME280;10104;50.732;10.174;2023-01-15T01:04:20;96183.44;;;10.21;100.00
19884;BME280;10104;50.732;10.174;2023-01-15T01:06:41;96186.69;;;10.34;100.00
19884;BME280;10104;50.732;10.174;2023-01-15T01:09:03;96177.47;;;10.25;100.00
19884;BME280;10104;50.732;10.174;2023-01-15T01:11:25;96176.91;;;10.35;100.00
19884;BME280;10104;50.732;10.174;2023-01-15T01:13:47;96170.69;;;10.29;100.00
19884;BME280;10104;50.732;10.174;2023-01-15T01:16:22;96170.59;;;10.36;100.00
19884;BME280;10104;50.732;10.174;2023-01-15T01:18:44;96165.75;;;10.21;100.00
19884;BME280;10104;50.732;10.174;2023-01-15T01:21:06;96165.59;;;10.16;100.00
19884;BME280;10104;50.732;10.174;2023-01-15T01:23:27;96169.63;;;10.19;100.00
19884;BME280;10104;50.732;10.174;2023-01-15T01:25:50;96158.91;;;10.13;100.00
19884;BME280;10104;50.732;10.174;2023-01-15T01:28:11;96159.06;;;10.19;100.00
19884;BME280;10104;50.732;10.174;2023-01-15T01:30:32;96147.44;;;10.20;100.00
19884;BME280;10104;50.732;10.174;2023-01-15T01:32:54;96148.84;;;10.22;100.00
19884;BME280;10104;50.732;10.174;2023-01-15T01:35:15;96153.41;;;10.15;100.00
19884;BME280;10104;50.732;10.174;2023-01-15T01:37:37;96162.88;;;10.23;100.00
19884;BME280;10104;50.732;10.174;2023-01-15T01:39:58;96149.44;;;10.24;100.00
19884;BME280;10104;50.732;10.174;2023-01-15T01:42:20;96153.09;;;10.23;100.00
19884;BME280;10104;50.732;10.174;2023-01-15T01:47:06;96162.50;;;10.19;100.00
19884;BME280;10104;50.732;10.174;2023-01-15T01:49:29;96164.34;;;10.19;100.00
19884;BME280;10104;50.732;10.174;2023-01-15T01:51:58;96172.13;;;10.13;100.00
19884;BME280;10104;50.732;10.174;2023-01-15T01:54:23;96165.97;;;10.20;100.00
19884;BME280;10104;50.732;10.174;2023-01-15T01:56:47;96156.25;;;10.13;100.00
19884;BME280;10104;50.732;10.174;2023-01-15T01:59:10;96151.44;;;10.10;100.00
19884;BME280;10104;50.732;10.174;2023-01-15T02:01:32;96155.44;;;10.13;100.00
19884;BME280;10104;50.732;10.174;2023-01-15T02:03:54;96166.03;;;10.13;100.00
19884;BME280;10104;50.732;10.174;2023-01-15T02:06:16;96211.44;;;10.10;100.00
19884;BME280;10104;50.732;10.174;2023-01-15T02:08:37;96216.78;;;9.80;100.00
19884;BME280;10104;50.732;10.174;2023-01-15T02:11:00;96231.59;;;9.63;100.00
19884;BME280;10104;50.732;10.174;2023-01-15T02:15:50;96234.59;;;9.18;100.00
19884;BME280;10104;50.732;10.174;2023-01-15T02:18:21;96228.06;;;9.03;100.00
19884;BME280;10104;50.732;10.174;2023-01-15T02:20:49;96221.59;;;8.99;100.00
19884;BME280;10104;50.732;10.174;2023-01-15T02:28:36;96240.00;;;8.87;100.00
19884;BME280;10104;50.732;10.174;2023-01-15T02:31:16;96236.91;;;8.90;100.00
19884;BME280;10104;50.732;10.174;2023-01-15T02:33:46;96247.53;;;8.83;100.00
19884;BME280;10104;50.732;10.174;2023-01-15T02:36:11;96256.31;;;8.77;100.00
19884;BME280;10104;50.732;10.174;2023-01-15T02:38:39;96253.41;;;8.61;100.00
19884;BME280;10104;50.732;10.174;2023-01-15T02:41:06;96263.78;;;8.62;100.00
19884;BME280;10104;50.732;10.174;2023-01-15T02:43:37;96278.94;;;8.42;100.00
19884;BME280;10104;50.732;10.174;2023-01-15T02:46:00;96269.44;;;8.34;100.00
19884;BME280;10104;50.732;10.174;2023-01-15T02:48:26;96270.06;;;8.30;100.00
19884;BME280;10104;50.732;10.174;2023-01-15T02:51:04;96266.81;;;8.28;100.00
19884;BME280;10104;50.732;10.174;2023-01-15T02:53:29;96283.66;;;8.33;100.00
19884;BME280;10104;50.732;10.174;2023-01-15T02:55:56;96284.31;;;8.22;100.00
19884;BME280;10104;50.732;10.174;2023-01-15T02:58:22;96289.38;;;8.24;100.00
19884;BME280;10104;50.732;10.174;2023-01-15T03:00:47;96298.91;;;8.25;100.00
19884;BME280;10104;50.732;10.174;2023-01-15T03:06:00;96301.41;;;8.13;100.00
19884;BME280;10104;50.732;10.174;2023-01-15T03:08:26;96312.84;;;8.00;100.00
19884;BME280;10104;50.732;10.174;2023-01-15T03:11:13;96328.31;;;7.84;100.00
19884;BME280;10104;50.732;10.174;2023-01-15T03:16:30;96322.72;;;7.60;100.00
19884;BME280;10104;50.732;10.174;2023-01-15T03:21:57;96322.38;;;7.44;100.00
19884;BME280;10104;50.732;10.174;2023-01-15T03:27:20;96315.09;;;7.39;100.00
19884;BME280;10104;50.732;10.174;2023-01-15T03:29:45;96333.53;;;7.32;100.00
19884;BME280;10104;50.732;10.174;2023-01-15T03:32:07;96337.81;;;7.27;100.00
19884;BME280;10104;50.732;10.174;2023-01-15T03:34:47;96327.47;;;7.25;100.00
19884;BME280;10104;50.732;10.174;2023-01-15T03:37:09;96321.84;;;7.15;100.00
19884;BME280;10104;50.732;10.174;2023-01-15T03:39:31;96329.50;;;7.23;100.00
19884;BME280;10104;50.732;10.174;2023-01-15T03:42:04;96329.13;;;7.13;100.00
19884;BME280;10104;50.732;10.174;2023-01-15T03:44:52;96331.94;;;7.18;100.00
19884;BME280;10104;50.732;10.174;2023-01-15T03:52:30;96330.97;;;6.93;100.00
19884;BME280;10104;50.732;10.174;2023-01-15T03:55:09;96333.59;;;7.00;100.00
19884;BME280;10104;50.732;10.174;2023-01-15T03:57:42;96348.19;;;6.89;100.00
19884;BME280;10104;50.732;10.174;2023-01-15T04:00:16;96331.19;;;6.78;100.00
19884;BME280;10104;50.732;10.174;2023-01-15T04:02:39;96333.59;;;6.80;100.00
19884;BME280;10104;50.732;10.174;2023-01-15T04:05:02;96341.09;;;6.76;100.00
19884;BME280;10104;50.732;10.174;2023-01-15T04:07:24;96346.16;;;6.71;100.00
19884;BME280;10104;50.732;10.174;2023-01-15T04:09:47;96341.28;;;6.75;100.00
19884;BME280;10104;50.732;10.174;2023-01-15T04:12:09;96355.25;;;6.69;100.00
19884;BME280;10104;50.732;10.174;2023-01-15T04:14:31;96365.56;;;6.64;100.00
19884;BME280;10104;50.732;10.174;2023-01-15T04:16:53;96365.75;;;6.62;100.00
19884;BME280;10104;50.732;10.174;2023-01-15T04:19:15;96375.84;;;6.45;100.00
19884;BME280;10104;50.732;10.174;2023-01-15T04:21:36;96366.56;;;6.49;100.00
19884;BME280;10104;50.732;10.174;2023-01-15T04:23:58;96369.16;;;6.43;100.00
19884;BME280;10104;50.732;10.174;2023-01-15T04:26:19;96377.66;;;6.38;100.00
19884;BME280;10104;50.732;10.174;2023-01-15T04:28:41;96384.31;;;6.34;100.00
19884;BME280;10104;50.732;10.174;2023-01-15T04:31:02;96377.25;;;6.35;100.00
19884;BME280;10104;50.732;10.174;2023-01-15T04:33:25;96392.19;;;6.28;100.00
19884;BME280;10104;50.732;10.174;2023-01-15T04:35:46;96374.97;;;6.19;100.00
19884;BME280;10104;50.732;10.174;2023-01-15T04:38:08;96391.16;;;6.16;100.00
19884;BME280;10104;50.732;10.174;2023-01-15T04:40:29;96386.47;;;6.11;100.00
19884;BME280;10104;50.732;10.174;2023-01-15T04:43:10;96383.44;;;6.07;100.00
19884;BME280;10104;50.732;10.174;2023-01-15T04:45:50;96379.59;;;6.03;100.00
19884;BME280;10104;50.732;10.174;2023-01-15T04:48:12;96386.66;;;6.03;100.00
19884;BME280;10104;50.732;10.174;2023-01-15T04:50:33;96395.72;;;6.00;100.00
19884;BME280;10104;50.732;10.174;2023-01-15T04:52:55;96409.66;;;5.94;100.00
19884;BME280;10104;50.732;10.174;2023-01-15T04:55:16;96418.47;;;5.87;100.00
19884;BME280;10104;50.732;10.174;2023-01-15T04:57:38;96424.94;;;5.84;100.00
19884;BME280;10104;50.732;10.174;2023-01-15T04:59:59;96416.78;;;5.73;100.00
19884;BME280;10104;50.732;10.174;2023-01-15T05:02:21;96429.44;;;5.62;100.00
19884;BME280;10104;50.732;10.174;2023-01-15T05:04:42;96435.69;;;5.55;100.00
19884;BME280;10104;50.732;10.174;2023-01-15T05:07:04;96448.13;;;5.46;100.00
19884;BME280;10104;50.732;10.174;2023-01-15T05:09:25;96445.97;;;5.56;100.00
19884;BME280;10104;50.732;10.174;2023-01-15T05:11:47;96431.44;;;5.54;100.00
19884;BME280;10104;50.732;10.174;2023-01-15T05:14:08;96432.19;;;5.48;100.00
19884;BME280;10104;50.732;10.174;2023-01-15T05:16:30;96440.97;;;5.61;100.00
19884;BME280;10104;50.732;10.174;2023-01-15T05:18:55;96458.53;;;5.61;100.00
19884;BME280;10104;50.732;10.174;2023-01-15T05:23:41;96450.03;;;5.59;96.78
19884;BME280;10104;50.732;10.174;2023-01-15T05:26:02;96451.31;;;5.69;99.06
19884;BME280;10104;50.732;10.174;2023-01-15T05:28:24;96458.38;;;5.69;99.06
19884;BME280;10104;50.732;10.174;2023-01-15T05:30:46;96449.06;;;5.66;97.95
19884;BME280;10104;50.732;10.174;2023-01-15T05:33:07;96441.25;;;5.73;96.62
19884;BME280;10104;50.732;10.174;2023-01-15T05:35:29;96454.31;;;5.66;97.42
19884;BME280;10104;50.732;10.174;2023-01-15T05:37:50;96463.78;;;5.61;96.89
19884;BME280;10104;50.732;10.174;2023-01-15T05:40:12;96464.16;;;5.58;98.39
19884;BME280;10104;50.732;10.174;2023-01-15T05:42:33;96444.28;;;5.42;96.19
19884;BME280;10104;50.732;10.174;2023-01-15T05:44:55;96453.78;;;5.50;95.86
19884;BME280;10104;50.732;10.174;2023-01-15T05:47:16;96450.75;;;5.46;97.10
19884;BME280;10104;50.732;10.174;2023-01-15T05:49:38;96447.19;;;5.54;97.38
19884;BME280;10104;50.732;10.174;2023-01-15T05:52:00;96449.63;;;5.62;96.58
19884;BME280;10104;50.732;10.174;2023-01-15T05:54:28;96451.88;;;5.65;96.92
19884;BME280;10104;50.732;10.174;2023-01-15T05:56:50;96449.84;;;5.60;97.50
19884;BME280;10104;50.732;10.174;2023-01-15T05:59:13;96451.66;;;5.94;97.72
19884;BME280;10104;50.732;10.174;2023-01-15T06:01:35;96449.75;;;6.09;96.77
19884;BME280;10104;50.732;10.174;2023-01-15T06:03:58;96452.00;;;6.26;96.28
19884;BME280;10104;50.732;10.174;2023-01-15T06:06:20;96441.56;;;6.45;96.14
19884;BME280;10104;50.732;10.174;2023-01-15T06:08:41;96441.63;;;6.65;95.66
19884;BME280;10104;50.732;10.174;2023-01-15T06:11:03;96451.16;;;6.79;94.56
19884;BME280;10104;50.732;10.174;2023-01-15T06:13:27;96441.84;;;6.70;93.87
19884;BME280;10104;50.732;10.174;2023-01-15T06:15:48;96444.00;;;6.47;92.34
19884;BME280;10104;50.732;10.174;2023-01-15T06:18:10;96446.63;;;6.40;93.41
19884;BME280;10104;50.732;10.174;2023-01-15T06:20:39;96444.81;;;6.41;94.47
19884;BME280;10104;50.732;10.174;2023-01-15T06:23:01;96456.50;;;6.32;92.28
19884;BME280;10104;50.732;10.174;2023-01-15T06:25:22;96469.53;;;6.12;94.51
19884;BME280;10104;50.732;10.174;2023-01-15T06:27:43;96465.31;;;6.18;96.01
19884;BME280;10104;50.732;10.174;2023-01-15T06:30:05;96456.41;;;6.12;95.48
19884;BME280;10104;50.732;10.174;2023-01-15T06:32:27;96462.53;;;6.26;96.25
19884;BME280;10104;50.732;10.174;2023-01-15T06:34:48;96468.72;;;6.12;95.11
19884;BME280;10104;50.732;10.174;2023-01-15T06:37:10;96461.91;;;6.17;95.90
19884;BME280;10104;50.732;10.174;2023-01-15T06:39:31;96458.19;;;6.05;96.05
19884;BME280;10104;50.732;10.174;2023-01-15T06:41:53;96463.88;;;5.81;97.04
19884;BME280;10104;50.732;10.174;2023-01-15T06:44:33;96463.59;;;5.90;97.13
19884;BME280;10104;50.732;10.174;2023-01-15T06:47:15;96475.88;;;5.62;98.17
19884;BME280;10104;50.732;10.174;2023-01-15T06:49:40;96473.25;;;5.62;98.29
19884;BME280;10104;50.732;10.174;2023-01-15T06:52:03;96483.38;;;5.37;99.87
19884;BME280;10104;50.732;10.174;2023-01-15T06:54:25;96485.75;;;5.32;100.00
19884;BME280;10104;50.732;10.174;2023-01-15T06:56:46;96484.28;;;5.23;100.00
19884;BME280;10104;50.732;10.174;2023-01-15T06:59:08;96491.00;;;5.32;100.00
19884;BME280;10104;50.732;10.174;2023-01-15T07:01:32;96496.84;;;5.27;100.00
19884;BME280;10104;50.732;10.174;2023-01-15T07:03:54;96488.16;;;5.27;100.00
19884;BME280;10104;50.732;10.174;2023-01-15T07:06:16;96497.06;;;5.33;100.00
19884;BME280;10104;50.732;10.174;2023-01-15T07:08:38;96493.28;;;5.35;100.00
19884;BME280;10104;50.732;10.174;2023-01-15T07:11:09;96493.09;;;5.37;100.00
19884;BME280;10104;50.732;10.174;2023-01-15T07:13:31;96491.72;;;5.19;100.00
19884;BME280;10104;50.732;10.174;2023-01-15T07:15:53;96490.72;;;5.20;99.80
19884;BME280;10104;50.732;10.174;2023-01-15T07:18:14;96496.84;;;5.06;100.00
19884;BME280;10104;50.732;10.174;2023-01-15T07:20:35;96512.91;;;4.97;100.00
19884;BME280;10104;50.732;10.174;2023-01-15T07:22:57;96513.28;;;4.94;100.00
19884;BME280;10104;50.732;10.174;2023-01-15T07:25:18;96524.22;;;4.97;100.00
19884;BME280;10104;50.732;10.174;2023-01-15T07:27:40;96521.34;;;4.92;100.00
19884;BME280;10104;50.732;10.174;2023-01-15T07:30:02;96529.06;;;4.79;100.00
19884;BME280;10104;50.732;10.174;2023-01-15T07:32:23;96530.22;;;4.55;100.00
19884;BME280;10104;50.732;10.174;2023-01-15T07:34:45;96527.03;;;4.60;100.00
19884;BME280;10104;50.732;10.174;2023-01-15T07:37:06;96527.22;;;4.58;100.00
19884;BME280;10104;50.732;10.174;2023-01-15T07:39:27;96523.97;;;4.56;100.00
19884;BME280;10104;50.732;10.174;2023-01-15T07:41:51;96520.22;;;4.65;100.00
19884;BME280;10104;50.732;10.174;2023-01-15T07:44:31;96530.22;;;4.55;100.00
19884;BME280;10104;50.732;10.174;2023-01-15T07:47:17;96534.22;;;4.72;100.00
19884;BME280;10104;50.732;10.174;2023-01-15T07:49:59;96542.03;;;4.66;100.00
19884;BME280;10104;50.732;10.174;2023-01-15T07:52:21;96559.47;;;4.59;100.00
19884;BME280;10104;50.732;10.174;2023-01-15T07:54:43;96563.47;;;4.55;100.00
19884;BME280;10104;50.732;10.174;2023-01-15T07:57:05;96549.81;;;4.59;100.00
19884;BME280;10104;50.732;10.174;2023-01-15T07:59:27;96551.69;;;4.51;100.00
19884;BME280;10104;50.732;10.174;2023-01-15T08:01:49;96556.34;;;4.48;100.00
19884;BME280;10104;50.732;10.174;2023-01-15T08:04:10;96549.72;;;4.53;100.00
19884;BME280;10104;50.732;10.174;2023-01-15T08:06:32;96558.69;;;4.43;100.00
19884;BME280;10104;50.732;10.174;2023-01-15T08:08:53;96567.16;;;4.45;100.00
19884;BME280;10104;50.732;10.174;2023-01-15T08:11:15;96566.34;;;4.45;100.00
19884;BME280;10104;50.732;10.174;2023-01-15T08:13:55;96578.63;;;4.44;100.00
19884;BME280;10104;50.732;10.174;2023-01-15T08:16:35;96574.34;;;4.37;100.00
19884;BME280;10104;50.732;10.174;2023-01-15T08:18:57;96578.13;;;4.34;100.00
19884;BME280;10104;50.732;10.174;2023-01-15T08:21:18;96584.97;;;4.35;100.00
19884;BME280;10104;50.732;10.174;2023-01-15T08:23:42;96589.69;;;4.40;100.00
19884;BME280;10104;50.732;10.174;2023-01-15T08:26:03;96587.59;;;4.35;100.00
19884;BME280;10104;50.732;10.174;2023-01-15T08:28:26;96585.06;;;4.42;100.00
19884;BME280;10104;50.732;10.174;2023-01-15T08:30:48;96593.50;;;4.37;100.00
19884;BME280;10104;50.732;10.174;2023-01-15T08:33:09;96588.25;;;4.37;100.00
19884;BME280;10104;50.732;10.174;2023-01-15T08:35:31;96600.31;;;4.38;100.00
19884;BME280;10104;50.732;10.174;2023-01-15T08:37:52;96600.63;;;4.29;100.00
19884;BME280;10104;50.732;10.174;2023-01-15T08:40:13;96591.66;;;4.23;100.00
19884;BME280;10104;50.732;10.174;2023-01-15T08:42:35;96592.41;;;4.17;100.00
19884;BME280;10104;50.732;10.174;2023-01-15T08:44:57;96604.56;;;4.10;100.00
19884;BME280;10104;50.732;10.174;2023-01-15T08:47:18;96615.94;;;4.02;100.00
19884;BME280;10104;50.732;10.174;2023-01-15T08:49:39;96620.47;;;4.08;100.00
19884;BME280;10104;50.732;10.174;2023-01-15T08:52:01;96610.53;;;4.04;100.00
19884;BME280;10104;50.732;10.174;2023-01-15T08:54:23;96611.88;;;4.15;100.00
19884;BME280;10104;50.732;10.174;2023-01-15T08:56:46;96614.16;;;4.18;100.00
19884;BME280;10104;50.732;10.174;2023-01-15T08:59:07;96617.34;;;4.13;100.00
19884;BME280;10104;50.732;10.174;2023-01-15T09:01:29;96617.41;;;4.20;100.00
19884;BME280;10104;50.732;10.174;2023-01-15T09:03:50;96618.50;;;4.25;100.00
19884;BME280;10104;50.732;10.174;2023-01-15T09:06:12;96610.75;;;4.32;100.00
19884;BME280;10104;50.732;10.174;2023-01-15T09:08:33;96612.25;;;4.26;100.00
19884;BME280;10104;50.732;10.174;2023-01-15T09:10:59;96613.09;;;4.41;100.00
19884;BME280;10104;50.732;10.174;2023-01-15T09:13:21;96625.28;;;4.34;100.00
19884;BME280;10104;50.732;10.174;2023-01-15T09:15:42;96613.34;;;4.46;100.00
19884;BME280;10104;50.732;10.174;2023-01-15T09:18:04;96620.94;;;4.41;100.00
19884;BME280;10104;50.732;10.174;2023-01-15T09:20:26;96626.53;;;4.53;100.00
19884;BME280;10104;50.732;10.174;2023-01-15T09:22:47;96625.09;;;4.51;100.00
19884;BME280;10104;50.732;10.174;2023-01-15T09:25:09;96624.00;;;4.45;100.00
19884;BME280;10104;50.732;10.174;2023-01-15T09:27:31;96628.59;;;4.58;100.00
19884;BME280;10104;50.732;10.174;2023-01-15T09:29:55;96639.38;;;4.33;100.00
19884;BME280;10104;50.732;10.174;2023-01-15T09:32:17;96641.72;;;4.28;100.00
19884;BME280;10104;50.732;10.174;2023-01-15T09:34:38;96646.31;;;4.12;100.00
19884;BME280;10104;50.732;10.174;2023-01-15T09:36:59;96649.16;;;4.02;100.00
19884;BME280;10104;50.732;10.174;2023-01-15T09:39:21;96646.22;;;4.05;100.00
19884;BME280;10104;50.732;10.174;2023-01-15T09:50:22;96669.44;;;3.85;100.00
19884;BME280;10104;50.732;10.174;2023-01-15T09:55:17;96681.84;;;3.91;100.00
19884;BME280;10104;50.732;10.174;2023-01-15T09:57:41;96688.03;;;3.76;100.00
19884;BME280;10104;50.732;10.174;2023-01-15T10:00:05;96684.88;;;3.80;100.00
19884;BME280;10104;50.732;10.174;2023-01-15T10:02:34;96696.00;;;3.82;100.00
19884;BME280;10104;50.732;10.174;2023-01-15T10:05:16;96689.75;;;3.83;100.00
19884;BME280;10104;50.732;10.174;2023-01-15T10:07:48;96699.13;;;3.78;100.00
19884;BME280;10104;50.732;10.174;2023-01-15T10:10:14;96685.53;;;3.82;100.00
19884;BME280;10104;50.732;10.174;2023-01-15T10:12:38;96678.56;;;3.89;100.00
19884;BME280;10104;50.732;10.174;2023-01-15T10:17:42;96649.91;;;4.11;100.00
19884;BME280;10104;50.732;10.174;2023-01-15T10:20:05;96650.03;;;4.17;100.00
19884;BME280;10104;50.732;10.174;2023-01-15T10:22:42;96652.16;;;4.14;100.00
19884;BME280;10104;50.732;10.174;2023-01-15T10:25:11;96647.22;;;4.19;100.00
19884;BME280;10104;50.732;10.174;2023-01-15T10:27:36;96652.38;;;4.12;100.00
19884;BME280;10104;50.732;10.174;2023-01-15T10:32:50;96650.38;;;4.14;100.00
19884;BME280;10104;50.732;10.174;2023-01-15T10:35:34;96645.44;;;4.19;100.00
19884;BME280;10104;50.732;10.174;2023-01-15T10:38:20;96654.16;;;4.12;100.00
19884;BME280;10104;50.732;10.174;2023-01-15T10:41:05;96656.78;;;4.12;100.00
19884;BME280;10104;50.732;10.174;2023-01-15T10:44:00;96643.31;;;4.15;100.00
19884;BME280;10104;50.732;10.174;2023-01-15T10:46:27;96652.09;;;4.22;100.00
19884;BME280;10104;50.732;10.174;2023-01-15T10:49:01;96650.56;;;4.27;100.00
19884;BME280;10104;50.732;10.174;2023-01-15T10:54:21;96647.88;;;4.35;100.00
19884;BME280;10104;50.732;10.174;2023-01-15T11:01:54;96654.63;;;4.44;100.00
19884;BME280;10104;50.732;10.174;2023-01-15T11:04:16;96652.81;;;4.45;100.00
19884;BME280;10104;50.732;10.174;2023-01-15T11:06:38;96664.84;;;4.39;100.00
19884;BME280;10104;50.732;10.174;2023-01-15T11:09:00;96668.44;;;4.38;100.00
19884;BME280;10104;50.732;10.174;2023-01-15T11:11:39;96652.00;;;4.44;100.00
19884;BME280;10104;50.732;10.174;2023-01-15T11:14:40;96647.16;;;4.41;100.00
19884;BME280;10104;50.732;10.174;2023-01-15T11:17:22;96648.41;;;4.60;100.00
19884;BME280;10104;50.732;10.174;2023-01-15T11:20:13;96646.59;;;4.61;100.00
19884;BME280;10104;50.732;10.174;2023-01-15T11:22:37;96655.81;;;4.42;100.00
19884;BME280;10104;50.732;10.174;2023-01-15T11:24:59;96658.63;;;4.55;100.00
19884;BME280;10104;50.732;10.174;2023-01-15T11:27:23;96662.97;;;4.48;100.00
19884;BME280;10104;50.732;10.174;2023-01-15T11:29:54;96671.09;;;4.53;100.00
19884;BME280;10104;50.732;10.174;2023-01-15T11:35:15;96652.28;;;4.64;100.00
19884;BME280;10104;50.732;10.174;2023-01-15T11:37:37;96642.53;;;4.73;100.00
19884;BME280;10104;50.732;10.174;2023-01-15T11:40:00;96642.88;;;4.84;100.00
19884;BME280;10104;50.732;10.174;2023-01-15T11:42:26;96634.28;;;4.91;100.00
19884;BME280;10104;50.732;10.174;2023-01-15T11:45:18;96645.31;;;4.86;100.00
19884;BME280;10104;50.732;10.174;2023-01-15T11:47:58;96634.34;;;4.97;99.37
19884;BME280;10104;50.732;10.174;2023-01-15T11:50:49;96642.78;;;4.93;98.25
19884;BME280;10104;50.732;10.174;2023-01-15T11:53:19;96639.22;;;5.00;98.15
19884;BME280;10104;50.732;10.174;2023-01-15T11:55:52;96621.81;;;5.14;98.01
19884;BME280;10104;50.732;10.174;2023-01-15T11:58:15;96615.16;;;5.33;95.99
19884;BME280;10104;50.732;10.174;2023-01-15T12:00:41;96619.91;;;5.44;95.52
19884;BME280;10104;50.732;10.174;2023-01-15T12:03:15;96642.19;;;5.48;95.03
19884;BME280;10104;50.732;10.174;2023-01-15T12:05:45;96645.75;;;5.61;96.88
19884;BME280;10104;50.732;10.174;2023-01-15T12:11:24;96646.22;;;5.29;95.60
19884;BME280;10104;50.732;10.174;2023-01-15T12:22:23;96629.75;;;4.99;97.43
19884;BME280;10104;50.732;10.174;2023-01-15T12:24:51;96639.25;;;4.85;98.16
19884;BME280;10104;50.732;10.174;2023-01-15T12:29:53;96624.91;;;4.67;98.76
19884;BME280;10104;50.732;10.174;2023-01-15T12:32:26;96628.22;;;4.75;97.08
19884;BME280;10104;50.732;10.174;2023-01-15T12:39:58;96624.34;;;4.71;98.00
19884;BME280;10104;50.732;10.174;2023-01-15T12:42:22;96621.81;;;4.78;98.29
19884;BME280;10104;50.732;10.174;2023-01-15T12:45:08;96628.78;;;4.85;97.68
19884;BME280;10104;50.732;10.174;2023-01-15T12:47:35;96627.88;;;4.93;98.12
19884;BME280;10104;50.732;10.174;2023-01-15T12:53:55;96624.88;;;4.81;94.21
19884;BME280;10104;50.732;10.174;2023-01-15T12:56:06;96623.44;;;4.94;95.11
19884;BME280;10104;50.732;10.174;2023-01-15T12:58:54;96623.34;;;4.87;93.77
19884;BME280;10104;50.732;10.174;2023-01-15T13:04:21;96621.22;;;5.12;94.60
19884;BME280;10104;50.732;10.174;2023-01-15T13:06:46;96617.41;;;5.14;93.39
19884;BME280;10104;50.732;10.174;2023-01-15T13:09:17;96624.28;;;5.15;93.58
19884;BME280;10104;50.732;10.174;2023-01-15T13:11:41;96634.06;;;5.07;92.01
19884;BME280;10104;50.732;10.174;2023-01-15T13:14:02;96630.19;;;5.03;91.38
19884;BME280;10104;50.732;10.174;2023-01-15T13:16:56;96612.72;;;5.10;90.92
19884;BME280;10104;50.732;10.174;2023-01-15T13:19:40;96612.47;;;5.05;90.99
19884;BME280;10104;50.732;10.174;2023-01-15T13:22:13;96623.38;;;5.08;93.25
19884;BME280;10104;50.732;10.174;2023-01-15T13:24:51;96625.72;;;5.18;91.60
19884;BME280;10104;50.732;10.174;2023-01-15T13:30:18;96625.38;;;5.06;91.41
19884;BME280;10104;50.732;10.174;2023-01-15T13:32:45;96611.81;;;5.03;90.37
19884;BME280;10104;50.732;10.174;2023-01-15T13:35:34;96626.56;;;5.04;91.08
19884;BME280;10104;50.732;10.174;2023-01-15T13:38:01;96623.78;;;5.05;92.95
19884;BME280;10104;50.732;10.174;2023-01-15T13:40:30;96637.78;;;4.98;91.00
19884;BME280;10104;50.732;10.174;2023-01-15T13:42:55;96645.91;;;5.03;90.60
19884;BME280;10104;50.732;10.174;2023-01-15T13:45:23;96638.22;;;5.01;91.53
19884;BME280;10104;50.732;10.174;2023-01-15T13:47:51;96640.75;;;5.09;91.53
19884;BME280;10104;50.732;10.174;2023-01-15T13:50:16;96639.91;;;5.23;93.48
19884;BME280;10104;50.732;10.174;2023-01-15T13:52:38;96650.50;;;5.15;91.44
19884;BME280;10104;50.732;10.174;2023-01-15T13:55:09;96656.78;;;5.00;91.79
19884;BME280;10104;50.732;10.174;2023-01-15T13:57:34;96673.44;;;4.92;91.91
19884;BME280;10104;50.732;10.174;2023-01-15T13:59:55;96681.56;;;4.97;92.18
19884;BME280;10104;50.732;10.174;2023-01-15T14:02:32;96681.19;;;5.00;89.98
19884;BME280;10104;50.732;10.174;2023-01-15T14:04:55;96678.78;;;4.99;89.95
19884;BME280;10104;50.732;10.174;2023-01-15T14:07:30;96687.34;;;5.07;90.89
19884;BME280;10104;50.732;10.174;2023-01-15T14:09:52;96700.34;;;5.01;88.62